Time;durP1;ratioP1;P1;durP2;ratioP2;P2;SDS_P1;SDS_P2;PMS_P1;PMS_P2;Temp;Humidity;BMP_temperature;BMP_pressure;BME280_temperature;BME280_humidity;BME280_pressure;Samples;Min_cycle;Max_cycle;Signal;HPM_P1;HPM_P2
2022/09/21 00:01:17;;;;;;;3.92;1.88;;;;;;;;;;5009880;28;20567;-78
2022/09/21 00:03:43;;;;;;;3.53;2.00;;;;;;;;;;4976041;28;20037;-78
2022/09/21 00:06:14;;;;;;;4.28;1.70;;;;;;;;;;4978321;28;20049;-78
2022/09/21 00:08:40;;;;;;;3.65;1.90;;;;;;;;;;4972883;28;20081;-77
2022/09/21 00:11:07;;;;;;;3.03;1.58;;;;;;;;;;4996026;28;20501;-78
2022/09/21 00:13:34;;;;;;;3.70;1.70;;;;;;;;;;4959193;28;20396;-77
2022/09/21 00:16:00;;;;;;;2.67;1.52;;;;;;;;;;4979316;28;20046;-76
2022/09/21 00:18:27;;;;;;;3.05;1.60;;;;;;;;;;4995345;28;20459;-77
2022/09/21 00:20:52;;;;;;;2.85;1.55;;;;;;;;;;4962909;28;21827;-78
2022/09/21 00:23:18;;;;;;;3.55;1.95;;;;;;;;;;4969936;28;20038;-77
2022/09/21 00:25:44;;;;;;;3.60;1.67;;;;;;;;;;4972368;28;20034;-77
2022/09/21 00:28:09;;;;;;;3.30;1.80;;;;;;;;;;4975895;28;20457;-79
2022/09/21 00:30:36;;;;;;;3.35;1.73;;;;;;;;;;4990710;28;20037;-77
2022/09/21 00:33:01;;;;;;;3.60;1.67;;;;;;;;;;4980903;28;20523;-77
2022/09/21 00:35:28;;;;;;;3.70;1.77;;;;;;;;;;4990217;28;20054;-78
2022/09/21 00:37:54;;;;;;;3.00;1.42;;;;;;;;;;4991163;28;20485;-78
2022/09/21 00:40:19;;;;;;;2.85;1.35;;;;;;;;;;4979757;28;20047;-79
2022/09/21 00:42:44;;;;;;;3.00;1.60;;;;;;;;;;4990440;28;20494;-78
2022/09/21 00:45:19;;;;;;;3.63;1.40;;;;;;;;;;4971892;28;20034;-78
2022/09/21 00:47:48;;;;;;;3.40;1.50;;;;;;;;;;4976260;28;20049;-78
2022/09/21 00:50:19;;;;;;;3.28;1.55;;;;;;;;;;4985687;28;20057;-79
2022/09/21 00:52:50;;;;;;;3.20;1.80;;;;;;;;;;4972835;28;20030;-79
2022/09/21 00:55:22;;;;;;;3.33;1.67;;;;;;;;;;4974681;28;20575;-78
2022/09/21 00:57:53;;;;;;;3.20;1.70;;;;;;;;;;4967068;28;20034;-78
2022/09/21 01:00:19;;;;;;;3.58;1.48;;;;;;;;;;4977242;28;20132;-77
2022/09/21 01:02:45;;;;;;;3.13;1.70;;;;;;;;;;4953267;28;20069;-78
2022/09/21 01:05:11;;;;;;;3.22;1.60;;;;;;;;;;4973556;28;20501;-78
2022/09/21 01:07:39;;;;;;;2.65;1.30;;;;;;;;;;4968784;28;20106;-77
2022/09/21 01:10:08;;;;;;;3.03;1.70;;;;;;;;;;4959293;28;20057;-77
2022/09/21 01:12:46;;;;;;;3.28;1.58;;;;;;;;;;4992330;28;20502;-78
2022/09/21 01:15:29;;;;;;;3.47;1.67;;;;;;;;;;4975235;28;20522;-78
2022/09/21 01:18:20;;;;;;;2.28;1.23;;;;;;;;;;4990982;28;20041;-78
2022/09/21 01:21:19;;;;;;;2.80;1.50;;;;;;;;;;4981404;28;20117;-78
2022/09/21 01:24:06;;;;;;;2.47;1.48;;;;;;;;;;4998013;28;20394;-78
2022/09/21 01:26:38;;;;;;;3.65;1.70;;;;;;;;;;4996998;28;20055;-78
2022/09/21 01:29:25;;;;;;;3.20;1.50;;;;;;;;;;4976038;28;20605;-79
2022/09/21 01:31:56;;;;;;;2.78;1.52;;;;;;;;;;4976308;28;20049;-78
2022/09/21 01:34:38;;;;;;;4.38;1.80;;;;;;;;;;4989416;28;20169;-78
2022/09/21 01:37:08;;;;;;;3.25;1.30;;;;;;;;;;4962167;28;20042;-77
2022/09/21 01:39:34;;;;;;;3.00;1.52;;;;;;;;;;4976633;28;20034;-77
2022/09/21 01:42:01;;;;;;;3.50;1.90;;;;;;;;;;4966924;28;20039;-78
2022/09/21 01:44:31;;;;;;;3.50;1.67;;;;;;;;;;4977769;28;20023;-79
2022/09/21 01:46:59;;;;;;;3.05;1.52;;;;;;;;;;4977261;28;20026;-77
2022/09/21 01:49:33;;;;;;;2.72;1.48;;;;;;;;;;4983010;28;20138;-77
2022/09/21 01:52:10;;;;;;;3.00;1.60;;;;;;;;;;4985494;28;20030;-78
2022/09/21 01:54:40;;;;;;;3.08;1.40;;;;;;;;;;4996055;28;20026;-78
2022/09/21 01:57:18;;;;;;;3.30;1.60;;;;;;;;;;4989174;28;20034;-77
2022/09/21 01:59:55;;;;;;;2.97;1.52;;;;;;;;;;4965258;28;20129;-78
2022/09/21 02:02:30;;;;;;;2.85;1.55;;;;;;;;;;4980184;28;20031;-77
2022/09/21 02:04:59;;;;;;;4.03;1.67;;;;;;;;;;4988522;28;20092;-77
2022/09/21 02:07:24;;;;;;;2.97;1.60;;;;;;;;;;4963635;28;20045;-79
2022/09/21 02:09:53;;;;;;;5.80;1.90;;;;;;;;;;4997132;28;20030;-78
2022/09/21 02:12:19;;;;;;;4.30;1.60;;;;;;;;;;4962197;28;20047;-78
2022/09/21 02:14:45;;;;;;;3.47;1.67;;;;;;;;;;4973082;28;20038;-77
2022/09/21 02:17:34;;;;;;;3.80;2.03;;;;;;;;;;4969367;28;20031;-79
2022/09/21 02:20:18;;;;;;;3.08;1.65;;;;;;;;;;4977139;28;20172;-78
2022/09/21 02:22:56;;;;;;;2.88;1.65;;;;;;;;;;4992531;28;20092;-78
2022/09/21 02:25:27;;;;;;;4.57;1.63;;;;;;;;;;4960435;28;20062;-77
2022/09/21 02:28:00;;;;;;;3.00;1.67;;;;;;;;;;4977841;28;20523;-77
2022/09/21 02:30:26;;;;;;;2.92;1.70;;;;;;;;;;4965948;28;20033;-78
2022/09/21 02:33:10;;;;;;;4.45;1.80;;;;;;;;;;4985048;28;20512;-78
2022/09/21 02:35:56;;;;;;;3.00;1.60;;;;;;;;;;4969581;28;20109;-79
2022/09/21 02:38:25;;;;;;;4.68;1.65;;;;;;;;;;4964909;28;20482;-77
2022/09/21 02:41:05;;;;;;;3.35;1.60;;;;;;;;;;4978955;28;20041;-79
2022/09/21 02:44:00;;;;;;;3.88;1.70;;;;;;;;;;4989079;28;20030;-81
2022/09/21 02:46:29;;;;;;;3.85;1.85;;;;;;;;;;4882819;29;20493;-82
2022/09/21 02:48:59;;;;;;;3.63;1.75;;;;;;;;;;4883281;29;20397;-82
2022/09/21 02:51:28;;;;;;;4.13;1.92;;;;;;;;;;4864373;29;20064;-82
2022/09/21 02:53:54;;;;;;;4.45;2.25;;;;;;;;;;4867785;29;20415;-82
2022/09/21 02:56:21;;;;;;;3.55;1.60;;;;;;;;;;4876851;29;20037;-82
2022/09/21 02:58:53;;;;;;;2.88;1.60;;;;;;;;;;4862757;29;20041;-82
2022/09/21 03:01:20;;;;;;;3.72;1.90;;;;;;;;;;4864836;29;20097;-82
2022/09/21 03:03:49;;;;;;;2.75;1.52;;;;;;;;;;4877779;29;20040;-82
2022/09/21 03:06:15;;;;;;;3.45;1.63;;;;;;;;;;4879900;29;20446;-82
2022/09/21 03:08:41;;;;;;;3.30;1.80;;;;;;;;;;4876900;29;20059;-81
2022/09/21 03:11:10;;;;;;;2.90;1.50;;;;;;;;;;4879794;29;20041;-81
2022/09/21 03:13:37;;;;;;;2.95;1.70;;;;;;;;;;4881852;29;20044;-81
2022/09/21 03:16:06;;;;;;;4.68;1.80;;;;;;;;;;4854889;29;20457;-82
2022/09/21 03:18:32;;;;;;;2.75;1.45;;;;;;;;;;4848112;29;20041;-82
2022/09/21 03:21:01;;;;;;;5.25;1.88;;;;;;;;;;4868655;29;20077;-82
2022/09/21 03:23:27;;;;;;;3.53;2.00;;;;;;;;;;4921306;28;20081;-82
2022/09/21 03:25:54;;;;;;;3.67;1.90;;;;;;;;;;4987101;28;20745;-81
2022/09/21 03:28:21;;;;;;;4.18;2.17;;;;;;;;;;4978236;28;20138;-82
2022/09/21 03:30:50;;;;;;;3.33;1.80;;;;;;;;;;4969358;28;20033;-82
2022/09/21 03:33:17;;;;;;;3.97;1.92;;;;;;;;;;4958484;28;20064;-82
2022/09/21 03:35:44;;;;;;;3.55;1.90;;;;;;;;;;4976395;28;20057;-82
2022/09/21 03:38:10;;;;;;;4.07;1.95;;;;;;;;;;4970325;28;20062;-81
2022/09/21 03:40:36;;;;;;;3.17;1.83;;;;;;;;;;4977294;28;20175;-80
2022/09/21 03:43:02;;;;;;;4.43;2.08;;;;;;;;;;4986990;28;20704;-80
2022/09/21 03:45:27;;;;;;;3.70;2.28;;;;;;;;;;4964230;28;20481;-82
2022/09/21 03:47:57;;;;;;;3.65;1.90;;;;;;;;;;4969816;28;20098;-81
2022/09/21 03:50:28;;;;;;;4.32;2.20;;;;;;;;;;4952186;28;20039;-80
2022/09/21 03:52:55;;;;;;;5.93;2.38;;;;;;;;;;4962707;28;20485;-80
2022/09/21 03:55:20;;;;;;;3.65;2.05;;;;;;;;;;4968236;28;20091;-80
2022/09/21 03:57:45;;;;;;;5.22;2.33;;;;;;;;;;4981932;28;20121;-80
2022/09/21 04:00:12;;;;;;;3.75;2.30;;;;;;;;;;4970460;28;20042;-81
2022/09/21 04:02:40;;;;;;;3.97;2.30;;;;;;;;;;4962741;28;20157;-81
2022/09/21 04:05:08;;;;;;;4.45;2.28;;;;;;;;;;4960719;28;20060;-81
2022/09/21 04:07:34;;;;;;;6.30;2.47;;;;;;;;;;4964885;28;20037;-81
2022/09/21 04:10:01;;;;;;;4.85;2.20;;;;;;;;;;4949023;28;20121;-80
2022/09/21 04:12:26;;;;;;;4.93;2.28;;;;;;;;;;4988888;28;20371;-80
2022/09/21 04:15:01;;;;;;;4.47;2.30;;;;;;;;;;4980773;28;20125;-82
2022/09/21 04:17:30;;;;;;;3.83;2.30;;;;;;;;;;4986831;28;20062;-81
2022/09/21 04:19:55;;;;;;;6.10;2.33;;;;;;;;;;4976283;28;20030;-81
2022/09/21 04:22:23;;;;;;;4.30;2.20;;;;;;;;;;4944326;28;20490;-81
2022/09/21 04:24:49;;;;;;;4.97;2.35;;;;;;;;;;4986078;28;20038;-80
2022/09/21 04:27:14;;;;;;;4.32;2.30;;;;;;;;;;4961447;28;20073;-81
2022/09/21 04:29:40;;;;;;;3.80;2.17;;;;;;;;;;4968646;28;20058;-81
2022/09/21 04:32:06;;;;;;;4.78;2.30;;;;;;;;;;4988050;28;20034;-80
2022/09/21 04:34:31;;;;;;;5.00;2.13;;;;;;;;;;5008085;28;20061;-81
2022/09/21 04:36:57;;;;;;;3.63;2.20;;;;;;;;;;4971183;28;20034;-80
2022/09/21 04:39:23;;;;;;;6.55;2.70;;;;;;;;;;4965688;28;20045;-81
2022/09/21 04:41:49;;;;;;;4.47;2.25;;;;;;;;;;4997344;28;20045;-81
2022/09/21 04:44:15;;;;;;;3.42;2.13;;;;;;;;;;4980695;28;20390;-81
2022/09/21 04:46:41;;;;;;;5.10;2.58;;;;;;;;;;4976332;28;20482;-80
2022/09/21 04:49:07;;;;;;;3.97;2.35;;;;;;;;;;4998336;28;20574;-81
2022/09/21 04:51:33;;;;;;;3.47;1.95;;;;;;;;;;4997775;28;20029;-80
2022/09/21 04:53:58;;;;;;;4.25;2.58;;;;;;;;;;4996736;28;20494;-80
2022/09/21 04:56:24;;;;;;;6.53;2.38;;;;;;;;;;4980449;28;20034;-81
2022/09/21 04:58:49;;;;;;;4.30;2.75;;;;;;;;;;4967312;28;20125;-81
2022/09/21 05:01:15;;;;;;;3.80;2.25;;;;;;;;;;4993091;28;20129;-81
2022/09/21 05:03:40;;;;;;;4.25;2.40;;;;;;;;;;4981118;28;20030;-79
2022/09/21 05:06:06;;;;;;;4.35;2.42;;;;;;;;;;4989126;28;20057;-78
2022/09/21 05:11:17;;;;;;;3.38;2.28;;;;;;;;;;5011605;28;20397;-79
2022/09/21 05:13:44;;;;;;;4.82;2.53;;;;;;;;;;4998225;28;20553;-79
2022/09/21 05:16:09;;;;;;;3.72;2.40;;;;;;;;;;4989390;28;20092;-79
2022/09/21 05:18:37;;;;;;;5.53;2.40;;;;;;;;;;5004649;28;20503;-78
2022/09/21 05:21:03;;;;;;;4.88;2.58;;;;;;;;;;4983575;28;20034;-78
2022/09/21 05:23:30;;;;;;;5.95;2.90;;;;;;;;;;4992158;28;20045;-77
2022/09/21 05:25:56;;;;;;;8.02;2.63;;;;;;;;;;4997109;28;20038;-79
2022/09/21 05:28:22;;;;;;;5.03;2.45;;;;;;;;;;4995300;28;20033;-80
2022/09/21 05:30:55;;;;;;;4.22;2.65;;;;;;;;;;4994487;28;20038;-80
2022/09/21 05:33:25;;;;;;;5.93;2.70;;;;;;;;;;5012686;28;20041;-80
2022/09/21 05:36:22;;;;;;;3.50;2.15;;;;;;;;;;4994137;28;20108;-81
2022/09/21 05:38:49;;;;;;;4.22;2.28;;;;;;;;;;4992425;28;20038;-78
2022/09/21 05:41:14;;;;;;;4.60;2.40;;;;;;;;;;4973700;28;20101;-78
2022/09/21 05:43:40;;;;;;;4.07;2.10;;;;;;;;;;4978646;28;20137;-77
2022/09/21 05:46:16;;;;;;;3.97;2.20;;;;;;;;;;4988167;28;20433;-78
2022/09/21 05:48:51;;;;;;;3.40;2.00;;;;;;;;;;4979400;28;20053;-78
2022/09/21 05:51:34;;;;;;;3.80;2.33;;;;;;;;;;4976815;28;20041;-77
2022/09/21 05:54:33;;;;;;;4.95;2.40;;;;;;;;;;4995885;28;20033;-78
2022/09/21 05:57:04;;;;;;;3.90;2.13;;;;;;;;;;4994955;28;20499;-79
2022/09/21 05:59:50;;;;;;;4.10;2.40;;;;;;;;;;4987364;28;20030;-78
2022/09/21 06:02:46;;;;;;;6.07;2.40;;;;;;;;;;4988515;28;20100;-76
2022/09/21 06:05:13;;;;;;;4.00;2.45;;;;;;;;;;4988087;28;20395;-79
2022/09/21 06:07:39;;;;;;;4.68;2.70;;;;;;;;;;4961248;28;20030;-79
2022/09/21 06:10:05;;;;;;;5.45;2.58;;;;;;;;;;4965022;28;20136;-78
2022/09/21 06:12:30;;;;;;;4.85;2.22;;;;;;;;;;4955104;28;20129;-78
2022/09/21 06:14:55;;;;;;;5.03;2.30;;;;;;;;;;4969265;28;20117;-77
2022/09/21 06:17:26;;;;;;;5.43;2.40;;;;;;;;;;4962136;28;20129;-77
2022/09/21 06:19:53;;;;;;;4.85;2.30;;;;;;;;;;4971966;28;20072;-79
2022/09/21 06:22:18;;;;;;;5.00;2.33;;;;;;;;;;4967429;28;20056;-79
2022/09/21 06:24:46;;;;;;;4.93;2.40;;;;;;;;;;4988131;28;20034;-78
2022/09/21 06:27:11;;;;;;;3.63;2.25;;;;;;;;;;4989868;28;20031;-78
2022/09/21 06:29:37;;;;;;;3.80;2.30;;;;;;;;;;4965744;28;20092;-78
2022/09/21 06:32:03;;;;;;;4.35;2.55;;;;;;;;;;4951762;28;20128;-79
2022/09/21 06:34:29;;;;;;;4.88;2.58;;;;;;;;;;4957701;28;20485;-77
2022/09/21 06:36:55;;;;;;;5.05;2.30;;;;;;;;;;4957941;28;20038;-78
2022/09/21 06:39:22;;;;;;;5.93;2.88;;;;;;;;;;4974552;28;20038;-79
2022/09/21 06:41:47;;;;;;;4.17;2.40;;;;;;;;;;4954283;28;20779;-78
2022/09/21 06:44:13;;;;;;;4.05;2.28;;;;;;;;;;4975800;28;20042;-78
2022/09/21 06:46:38;;;;;;;4.50;2.58;;;;;;;;;;4956719;28;20030;-78
2022/09/21 06:49:04;;;;;;;4.75;2.85;;;;;;;;;;4965528;28;20145;-78
2022/09/21 06:51:29;;;;;;;4.10;2.30;;;;;;;;;;4946361;28;20510;-78
2022/09/21 06:53:57;;;;;;;4.70;2.53;;;;;;;;;;4977910;28;20041;-77
2022/09/21 06:56:24;;;;;;;4.70;2.45;;;;;;;;;;4951964;28;20042;-77
2022/09/21 06:58:51;;;;;;;4.95;2.15;;;;;;;;;;4964596;28;20085;-76
2022/09/21 07:01:16;;;;;;;5.82;2.70;;;;;;;;;;4965666;28;20116;-79
2022/09/21 07:03:42;;;;;;;4.13;2.20;;;;;;;;;;4966328;28;20030;-78
2022/09/21 07:06:10;;;;;;;6.13;2.97;;;;;;;;;;4977691;28;20046;-78
2022/09/21 07:08:38;;;;;;;5.30;2.92;;;;;;;;;;4986732;28;20068;-77
2022/09/21 07:11:04;;;;;;;7.20;2.40;;;;;;;;;;4987364;28;20563;-78
2022/09/21 07:13:30;;;;;;;7.20;2.42;;;;;;;;;;4971611;28;20117;-76
2022/09/21 07:15:55;;;;;;;4.32;2.58;;;;;;;;;;4974801;28;20038;-78
2022/09/21 07:18:21;;;;;;;4.05;2.20;;;;;;;;;;4976472;28;20084;-76
2022/09/21 07:20:49;;;;;;;5.03;2.28;;;;;;;;;;4978146;28;20038;-77
2022/09/21 07:23:19;;;;;;;5.75;2.40;;;;;;;;;;4979029;28;20030;-76
2022/09/21 07:26:06;;;;;;;4.47;2.28;;;;;;;;;;4991388;28;20061;-76
2022/09/21 07:28:32;;;;;;;4.28;2.08;;;;;;;;;;4967787;28;20051;-76
2022/09/21 07:30:58;;;;;;;6.18;2.42;;;;;;;;;;4935306;28;20079;-77
2022/09/21 07:33:24;;;;;;;4.15;2.53;;;;;;;;;;4953374;28;20039;-78
2022/09/21 07:35:55;;;;;;;6.15;2.42;;;;;;;;;;4940674;28;20117;-77
2022/09/21 07:38:20;;;;;;;4.88;2.10;;;;;;;;;;4954523;28;20433;-76
2022/09/21 07:40:46;;;;;;;5.90;2.38;;;;;;;;;;4954334;28;20038;-77
2022/09/21 07:43:11;;;;;;;4.43;2.10;;;;;;;;;;4940240;28;20047;-78
2022/09/21 07:45:37;;;;;;;3.80;2.03;;;;;;;;;;4953620;28;20091;-76
2022/09/21 07:48:03;;;;;;;5.22;2.50;;;;;;;;;;4941840;28;20533;-76
2022/09/21 07:50:33;;;;;;;5.18;2.20;;;;;;;;;;4950946;28;20120;-77
2022/09/21 07:52:59;;;;;;;4.30;2.20;;;;;;;;;;4958134;28;20046;-77
2022/09/21 07:55:25;;;;;;;4.18;2.30;;;;;;;;;;4947077;28;20039;-76
2022/09/21 08:00:37;;;;;;;4.72;2.10;;;;;;;;;;4950916;28;20642;-77
2022/09/21 08:03:03;;;;;;;3.75;2.17;;;;;;;;;;4967077;28;20042;-79
2022/09/21 08:05:29;;;;;;;5.13;2.58;;;;;;;;;;4944183;28;20121;-79
2022/09/21 08:07:55;;;;;;;4.18;2.20;;;;;;;;;;4986922;28;20506;-79
2022/09/21 08:10:21;;;;;;;4.80;2.20;;;;;;;;;;4971971;28;20497;-78
2022/09/21 08:12:47;;;;;;;3.72;2.25;;;;;;;;;;4990084;28;20033;-78
2022/09/21 08:15:13;;;;;;;5.25;2.22;;;;;;;;;;4976245;28;20042;-79
2022/09/21 08:17:41;;;;;;;4.60;2.00;;;;;;;;;;4982116;28;20401;-77
2022/09/21 08:20:07;;;;;;;3.10;1.70;;;;;;;;;;4969586;28;20486;-78
2022/09/21 08:22:32;;;;;;;3.00;1.70;;;;;;;;;;4967943;28;20112;-78
2022/09/21 08:24:57;;;;;;;4.93;1.50;;;;;;;;;;4966831;28;20064;-77
2022/09/21 08:27:24;;;;;;;2.78;1.30;;;;;;;;;;4972423;28;20038;-79
2022/09/21 08:29:50;;;;;;;3.78;1.70;;;;;;;;;;4983183;28;20040;-77
2022/09/21 08:32:15;;;;;;;3.97;1.50;;;;;;;;;;4976843;28;20108;-78
2022/09/21 08:34:41;;;;;;;3.60;1.50;;;;;;;;;;4975068;28;20045;-80
2022/09/21 08:37:08;;;;;;;4.07;1.70;;;;;;;;;;4967285;28;20040;-79
2022/09/21 08:39:36;;;;;;;3.00;1.30;;;;;;;;;;4975071;28;20061;-80
2022/09/21 08:42:08;;;;;;;2.58;1.27;;;;;;;;;;4981791;28;20125;-78
2022/09/21 08:44:36;;;;;;;2.17;1.05;;;;;;;;;;4985795;28;20042;-78
2022/09/21 08:47:14;;;;;;;3.42;1.40;;;;;;;;;;4997601;28;20510;-79
2022/09/21 08:49:46;;;;;;;3.45;1.35;;;;;;;;;;4984990;28;20041;-79
2022/09/21 08:52:14;;;;;;;2.95;1.30;;;;;;;;;;4973871;28;20121;-78
2022/09/21 08:54:45;;;;;;;2.97;1.10;;;;;;;;;;4970463;28;20045;-77
2022/09/21 08:57:12;;;;;;;2.10;1.00;;;;;;;;;;5003952;28;20085;-78
2022/09/21 08:59:42;;;;;;;2.08;0.90;;;;;;;;;;4973329;28;20068;-78
2022/09/21 09:02:37;;;;;;;2.25;1.00;;;;;;;;;;4989872;28;20367;-77
2022/09/21 09:05:03;;;;;;;1.98;0.90;;;;;;;;;;4976518;28;20038;-78
2022/09/21 09:07:46;;;;;;;2.20;0.90;;;;;;;;;;4980035;28;20042;-77
2022/09/21 09:10:21;;;;;;;2.80;1.00;;;;;;;;;;4989362;28;20037;-78
2022/09/21 09:13:32;;;;;;;3.00;1.10;;;;;;;;;;4960609;28;20038;-77
2022/09/21 09:16:21;;;;;;;2.05;1.00;;;;;;;;;;4993273;28;20104;-79
2022/09/21 09:19:34;;;;;;;2.63;1.00;;;;;;;;;;4995449;28;20522;-79
2022/09/21 09:22:01;;;;;;;2.45;0.95;;;;;;;;;;4967039;28;20505;-78
2022/09/21 09:24:37;;;;;;;2.63;1.02;;;;;;;;;;4990403;28;20117;-78
2022/09/21 09:27:08;;;;;;;3.05;1.25;;;;;;;;;;4964835;28;20124;-78
2022/09/21 09:29:48;;;;;;;2.30;1.00;;;;;;;;;;4960115;28;20486;-79
2022/09/21 09:32:16;;;;;;;2.13;1.02;;;;;;;;;;4994278;28;20533;-79
2022/09/21 09:34:45;;;;;;;1.83;0.70;;;;;;;;;;4983356;28;20124;-78
2022/09/21 09:37:15;;;;;;;3.25;1.10;;;;;;;;;;4976937;28;20029;-79
2022/09/21 09:39:44;;;;;;;5.70;1.20;;;;;;;;;;4994477;28;20395;-79
2022/09/21 09:42:50;;;;;;;2.17;1.08;;;;;;;;;;4972065;28;20061;-79
2022/09/21 09:45:57;;;;;;;4.15;1.13;;;;;;;;;;4982656;28;20038;-79
2022/09/21 09:48:32;;;;;;;;;;;;;;;;;;4948186;28;20108;-79
2022/09/21 09:50:57;;;;;;;3.30;0.98;;;;;;;;;;4966765;28;19914;-81
2022/09/21 09:53:28;;;;;;;2.78;1.10;;;;;;;;;;4972729;28;20039;-79
2022/09/21 09:55:55;;;;;;;2.10;1.00;;;;;;;;;;4976007;28;20053;-78
2022/09/21 09:58:34;;;;;;;2.63;0.70;;;;;;;;;;4975370;28;20042;-79
2022/09/21 10:00:59;;;;;;;4.57;1.15;;;;;;;;;;4995163;28;20041;-79
2022/09/21 10:03:26;;;;;;;1.75;0.90;;;;;;;;;;4977056;28;20498;-79
2022/09/21 10:05:52;;;;;;;2.92;0.73;;;;;;;;;;4981113;28;20044;-78
2022/09/21 10:08:38;;;;;;;1.92;0.70;;;;;;;;;;4994242;28;20042;-78
2022/09/21 10:11:04;;;;;;;1.83;0.80;;;;;;;;;;4963904;28;20046;-79
2022/09/21 10:13:35;;;;;;;1.98;0.63;;;;;;;;;;4990843;28;20065;-77
2022/09/21 10:16:05;;;;;;;1.63;0.68;;;;;;;;;;4983666;28;20030;-79
2022/09/21 10:18:43;;;;;;;1.30;0.60;;;;;;;;;;4970123;28;20046;-79
2022/09/21 10:21:15;;;;;;;1.40;0.47;;;;;;;;;;4980245;28;20425;-78
2022/09/21 10:23:47;;;;;;;2.80;0.60;;;;;;;;;;4978599;28;20497;-77
2022/09/21 10:26:12;;;;;;;1.15;0.40;;;;;;;;;;4969788;28;20403;-78
2022/09/21 10:29:13;;;;;;;1.20;0.50;;;;;;;;;;4983309;28;20030;-78
2022/09/21 10:31:55;;;;;;;3.30;0.57;;;;;;;;;;4950574;28;20418;-77
2022/09/21 10:34:20;;;;;;;3.40;0.70;;;;;;;;;;4976927;28;20035;-78
2022/09/21 10:36:51;;;;;;;1.13;0.40;;;;;;;;;;4990654;28;20043;-76
2022/09/21 10:39:29;;;;;;;1.27;0.52;;;;;;;;;;4966042;28;20033;-78
2022/09/21 10:42:05;;;;;;;1.25;0.50;;;;;;;;;;4988477;28;20041;-78
2022/09/21 10:44:37;;;;;;;1.58;0.50;;;;;;;;;;4963983;28;20038;-77
2022/09/21 10:47:17;;;;;;;0.85;0.35;;;;;;;;;;4965324;28;20053;-78
2022/09/21 10:49:54;;;;;;;1.17;0.40;;;;;;;;;;5006782;28;20108;-78
2022/09/21 10:52:23;;;;;;;1.23;0.50;;;;;;;;;;4991584;28;20497;-78
2022/09/21 10:54:51;;;;;;;0.80;0.30;;;;;;;;;;4979828;28;20453;-79
2022/09/21 10:57:18;;;;;;;2.58;0.60;;;;;;;;;;4985629;28;20508;-77
2022/09/21 10:59:46;;;;;;;0.95;0.38;;;;;;;;;;4975221;28;20052;-78
2022/09/21 11:02:30;;;;;;;1.95;0.50;;;;;;;;;;4974147;28;20025;-78
2022/09/21 11:05:04;;;;;;;1.70;0.60;;;;;;;;;;4977470;28;20133;-78
2022/09/21 11:07:41;;;;;;;1.33;0.60;;;;;;;;;;4974224;28;20045;-79
2022/09/21 11:10:22;;;;;;;1.90;0.53;;;;;;;;;;4997563;28;20121;-78
2022/09/21 11:13:27;;;;;;;1.65;0.60;;;;;;;;;;4966491;28;20293;-78
2022/09/21 11:16:23;;;;;;;1.33;0.60;;;;;;;;;;4987509;28;20034;-78
2022/09/21 11:19:17;;;;;;;1.92;0.45;;;;;;;;;;4998437;28;20446;-77
2022/09/21 11:21:52;;;;;;;11.30;0.90;;;;;;;;;;4979012;28;20544;-78
2022/09/21 11:24:44;;;;;;;0.85;0.40;;;;;;;;;;4994688;28;20056;-78
2022/09/21 11:27:34;;;;;;;1.13;0.40;;;;;;;;;;4962371;28;20370;-79
2022/09/21 11:30:08;;;;;;;1.10;0.40;;;;;;;;;;4947473;28;20126;-78
2022/09/21 11:32:52;;;;;;;0.70;0.30;;;;;;;;;;4967166;28;20367;-78
2022/09/21 11:35:34;;;;;;;1.45;0.50;;;;;;;;;;4989753;28;20046;-78
2022/09/21 11:38:03;;;;;;;0.88;0.32;;;;;;;;;;4992317;28;20041;-77
2022/09/21 11:40:44;;;;;;;0.70;0.40;;;;;;;;;;5002869;28;20601;-77
2022/09/21 11:43:28;;;;;;;0.98;0.38;;;;;;;;;;4992346;28;20096;-77
2022/09/21 11:46:15;;;;;;;0.85;0.40;;;;;;;;;;5013242;28;20022;-77
2022/09/21 11:48:55;;;;;;;0.95;0.30;;;;;;;;;;5004859;28;20046;-77
2022/09/21 11:51:42;;;;;;;1.20;0.45;;;;;;;;;;4971424;28;20042;-79
2022/09/21 11:54:45;;;;;;;1.08;0.40;;;;;;;;;;4986153;28;20065;-76
2022/09/21 11:57:36;;;;;;;1.10;0.32;;;;;;;;;;4991874;28;20037;-76
2022/09/21 12:00:18;;;;;;;1.52;0.45;;;;;;;;;;4967350;28;20574;-78
2022/09/21 12:03:02;;;;;;;1.80;0.65;;;;;;;;;;4979397;28;20038;-77
2022/09/21 12:06:01;;;;;;;0.93;0.40;;;;;;;;;;4977353;28;20042;-77
2022/09/21 12:08:48;;;;;;;1.00;0.50;;;;;;;;;;5011604;28;20049;-77
2022/09/21 12:11:22;;;;;;;1.50;0.47;;;;;;;;;;4998027;28;20035;-77
2022/09/21 12:13:57;;;;;;;1.38;0.40;;;;;;;;;;4983008;28;20117;-77
2022/09/21 12:16:47;;;;;;;0.98;0.40;;;;;;;;;;5002429;28;20041;-77
2022/09/21 12:19:40;;;;;;;0.88;0.40;;;;;;;;;;4975858;28;20042;-77
2022/09/21 12:22:16;;;;;;;1.13;0.38;;;;;;;;;;4967826;28;20035;-77
2022/09/21 12:25:02;;;;;;;1.25;0.40;;;;;;;;;;4971112;28;20087;-80
2022/09/21 12:27:40;;;;;;;0.77;0.33;;;;;;;;;;5001610;28;20397;-79
2022/09/21 12:30:15;;;;;;;;;;;;;;;;;;4997540;28;20038;-83
2022/09/21 12:32:46;;;;;;;1.42;0.50;;;;;;;;;;4957414;28;19914;-80
2022/09/21 12:35:34;;;;;;;0.70;0.30;;;;;;;;;;4989746;28;20091;-84
2022/09/21 12:38:20;;;;;;;0.90;0.40;;;;;;;;;;4995912;28;20041;-80
2022/09/21 12:41:01;;;;;;;1.65;0.50;;;;;;;;;;4994602;28;20557;-79
2022/09/21 12:43:54;;;;;;;0.93;0.40;;;;;;;;;;4942262;28;20034;-80
2022/09/21 12:46:23;;;;;;;1.63;0.47;;;;;;;;;;4980221;28;20065;-79
2022/09/21 12:48:48;;;;;;;1.27;0.50;;;;;;;;;;4975602;28;20105;-80
2022/09/21 12:51:23;;;;;;;1.42;0.55;;;;;;;;;;5001883;28;20126;-80
2022/09/21 12:53:52;;;;;;;1.38;0.40;;;;;;;;;;4998086;28;20088;-81
2022/09/21 12:56:52;;;;;;;1.52;0.50;;;;;;;;;;4977921;28;20408;-81
2022/09/21 12:59:36;;;;;;;1.00;0.40;;;;;;;;;;4981633;28;20052;-83
2022/09/21 13:02:39;;;;;;;1.05;0.45;;;;;;;;;;4979071;28;20054;-82
2022/09/21 13:05:15;;;;;;;1.35;0.45;;;;;;;;;;4987359;28;20176;-82
2022/09/21 13:08:03;;;;;;;1.13;0.50;;;;;;;;;;5009521;28;20125;-83
2022/09/21 13:10:30;;;;;;;;;;;;;;;;;;4973296;28;20043;-81
2022/09/21 13:13:01;;;;;;;0.88;0.30;;;;;;;;;;5010469;28;19948;-82
2022/09/21 13:15:43;;;;;;;1.52;0.50;;;;;;;;;;4998011;28;20030;-81
2022/09/21 13:18:18;;;;;;;1.60;0.52;;;;;;;;;;4980066;28;20482;-81
2022/09/21 13:20:44;;;;;;;2.53;0.45;;;;;;;;;;4988484;28;20041;-85
2022/09/21 13:23:40;;;;;;;3.70;0.55;;;;;;;;;;4991873;28;20048;-80
2022/09/21 13:26:08;;;;;;;1.42;0.55;;;;;;;;;;4973359;28;20110;-80
2022/09/21 13:29:02;;;;;;;1.02;0.40;;;;;;;;;;4992037;28;20042;-80
2022/09/21 13:31:30;;;;;;;1.27;0.45;;;;;;;;;;5007120;28;20038;-79
2022/09/21 13:34:28;;;;;;;1.05;0.30;;;;;;;;;;5003676;28;20042;-81
2022/09/21 13:37:18;;;;;;;1.17;0.43;;;;;;;;;;4975881;28;20042;-80
2022/09/21 13:39:47;;;;;;;1.25;0.50;;;;;;;;;;5001730;28;20105;-80
2022/09/21 13:42:31;;;;;;;1.00;0.40;;;;;;;;;;5003304;28;20566;-81
2022/09/21 13:44:59;;;;;;;1.63;0.50;;;;;;;;;;4997858;28;20077;-82
2022/09/21 13:47:33;;;;;;;0.95;0.40;;;;;;;;;;4980841;28;20034;-83
2022/09/21 13:50:03;;;;;;;1.08;0.30;;;;;;;;;;4967367;28;20073;-81
2022/09/21 13:52:51;;;;;;;1.20;0.40;;;;;;;;;;5013380;28;20033;-81
2022/09/21 13:55:39;;;;;;;1.25;0.45;;;;;;;;;;5010395;28;20037;-81
2022/09/21 13:58:18;;;;;;;1.15;0.45;;;;;;;;;;4968026;28;20070;-80
2022/09/21 14:01:10;;;;;;;1.33;0.50;;;;;;;;;;5011829;28;20035;-81
2022/09/21 14:03:57;;;;;;;1.50;0.40;;;;;;;;;;5000328;28;20042;-81
2022/09/21 14:06:25;;;;;;;;;;;;;;;;;;4996922;28;20121;-82
2022/09/21 14:09:00;;;;;;;0.90;0.30;;;;;;;;;;5011770;28;20004;-81
2022/09/21 14:11:35;;;;;;;1.45;0.40;;;;;;;;;;4994149;28;20042;-81
2022/09/21 14:14:02;;;;;;;1.50;0.57;;;;;;;;;;4947252;28;20091;-82
2022/09/21 14:16:27;;;;;;;1.65;0.40;;;;;;;;;;4984442;28;20034;-81
2022/09/21 14:18:55;;;;;;;1.45;0.50;;;;;;;;;;4993627;28;20903;-81
2022/09/21 14:21:22;;;;;;;1.13;0.40;;;;;;;;;;5000548;28;20030;-81
2022/09/21 14:24:06;;;;;;;2.05;0.50;;;;;;;;;;4987171;28;20045;-81
2022/09/21 14:26:40;;;;;;;2.78;0.60;;;;;;;;;;4993996;28;20450;-82
2022/09/21 14:29:38;;;;;;;1.20;0.40;;;;;;;;;;4994580;28;20065;-81
2022/09/21 14:32:10;;;;;;;1.10;0.40;;;;;;;;;;4986508;28;20527;-82
2022/09/21 14:34:38;;;;;;;1.02;0.40;;;;;;;;;;4979734;28;20442;-82
2022/09/21 14:37:13;;;;;;;2.38;0.60;;;;;;;;;;4996205;28;20497;-82
2022/09/21 14:39:42;;;;;;;1.30;0.50;;;;;;;;;;4997789;28;20034;-82
2022/09/21 14:42:18;;;;;;;0.77;0.30;;;;;;;;;;4989219;28;20520;-82
2022/09/21 14:44:45;;;;;;;1.70;0.40;;;;;;;;;;5011557;28;20038;-82
2022/09/21 14:47:27;;;;;;;1.10;0.40;;;;;;;;;;4993567;28;20037;-83
2022/09/21 14:50:22;;;;;;;2.17;0.52;;;;;;;;;;4993013;28;20030;-82
2022/09/21 14:53:08;;;;;;;1.17;0.40;;;;;;;;;;4875947;29;20128;-81
2022/09/21 14:55:48;;;;;;;1.17;0.40;;;;;;;;;;4860653;29;20036;-81
2022/09/21 14:58:32;;;;;;;0.85;0.20;;;;;;;;;;4889575;29;20045;-82
2022/09/21 15:01:35;;;;;;;0.82;0.40;;;;;;;;;;4879264;29;20196;-81
2022/09/21 15:04:19;;;;;;;1.15;0.40;;;;;;;;;;4891894;29;20076;-81
2022/09/21 15:13:07;;;;;;;;;;;;;;;;;;4844583;29;20508;-81
2022/09/21 15:15:44;;;;;;;1.08;0.32;;;;;;;;;;4874333;29;19923;-81
2022/09/21 15:18:20;;;;;;;1.17;0.47;;;;;;;;;;4876930;29;20445;-80
2022/09/21 15:21:03;;;;;;;2.60;0.98;;;;;;;;;;4877461;29;20038;-80
2022/09/21 15:23:32;;;;;;;1.65;0.50;;;;;;;;;;4858874;29;20454;-80
2022/09/21 15:26:02;;;;;;;1.25;0.40;;;;;;;;;;4874612;29;20049;-81
2022/09/21 15:28:40;;;;;;;1.60;0.43;;;;;;;;;;4862371;28;20063;-80
2022/09/21 15:31:07;;;;;;;1.67;0.30;;;;;;;;;;4972730;28;20118;-80
2022/09/21 15:33:38;;;;;;;0.80;0.30;;;;;;;;;;4991222;28;20571;-83